sensor_id;sensor_type;location;lat;lon;timestamp;temperature;humidity
26623;DHT22;14254;50.968;5.366;2023-01-04T00:01:12;10.00;99.90
26623;DHT22;14254;50.968;5.366;2023-01-04T00:03:39;10.00;99.90
26623;DHT22;14254;50.968;5.366;2023-01-04T00:06:06;9.80;99.90
26623;DHT22;14254;50.968;5.366;2023-01-04T00:08:32;9.70;99.90
26623;DHT22;14254;50.968;5.366;2023-01-04T00:11:02;9.60;99.90
26623;DHT22;14254;50.968;5.366;2023-01-04T00:13:30;9.50;99.90
26623;DHT22;14254;50.968;5.366;2023-01-04T00:15:56;9.60;99.90
26623;DHT22;14254;50.968;5.366;2023-01-04T00:18:22;9.50;99.90
26623;DHT22;14254;50.968;5.366;2023-01-04T00:20:48;9.50;99.90
26623;DHT22;14254;50.968;5.366;2023-01-04T00:23:14;9.40;99.90
26623;DHT22;14254;50.968;5.366;2023-01-04T00:25:40;9.40;99.90
26623;DHT22;14254;50.968;5.366;2023-01-04T00:28:06;9.40;99.90
26623;DHT22;14254;50.968;5.366;2023-01-04T00:30:32;9.40;99.90
26623;DHT22;14254;50.968;5.366;2023-01-04T00:32:58;9.40;99.90
26623;DHT22;14254;50.968;5.366;2023-01-04T00:35:24;9.20;99.90
26623;DHT22;14254;50.968;5.366;2023-01-04T00:37:49;9.20;99.90
26623;DHT22;14254;50.968;5.366;2023-01-04T00:40:15;9.30;99.90
26623;DHT22;14254;50.968;5.366;2023-01-04T00:42:41;9.30;99.90
26623;DHT22;14254;50.968;5.366;2023-01-04T00:45:07;9.30;99.90
26623;DHT22;14254;50.968;5.366;2023-01-04T00:47:33;9.30;99.90
26623;DHT22;14254;50.968;5.366;2023-01-04T00:49:58;9.20;99.90
26623;DHT22;14254;50.968;5.366;2023-01-04T00:52:24;9.20;99.90
26623;DHT22;14254;50.968;5.366;2023-01-04T00:54:50;9.20;99.90
26623;DHT22;14254;50.968;5.366;2023-01-04T00:57:15;9.20;99.90
26623;DHT22;14254;50.968;5.366;2023-01-04T00:59:41;9.20;99.90
26623;DHT22;14254;50.968;5.366;2023-01-04T01:02:07;9.20;99.90
26623;DHT22;14254;50.968;5.366;2023-01-04T01:04:33;9.20;99.90
26623;DHT22;14254;50.968;5.366;2023-01-04T01:06:58;9.30;99.90
26623;DHT22;14254;50.968;5.366;2023-01-04T01:09:24;9.20;99.90
26623;DHT22;14254;50.968;5.366;2023-01-04T01:11:52;9.20;99.90
26623;DHT22;14254;50.968;5.366;2023-01-04T01:14:20;9.20;99.90
26623;DHT22;14254;50.968;5.366;2023-01-04T01:16:46;9.20;99.90
26623;DHT22;14254;50.968;5.366;2023-01-04T01:19:12;9.30;99.90
26623;DHT22;14254;50.968;5.366;2023-01-04T01:21:38;9.40;99.90
26623;DHT22;14254;50.968;5.366;2023-01-04T01:24:05;9.40;99.90
26623;DHT22;14254;50.968;5.366;2023-01-04T01:26:30;9.40;99.90
26623;DHT22;14254;50.968;5.366;2023-01-04T01:28:58;9.40;99.90
26623;DHT22;14254;50.968;5.366;2023-01-04T01:31:26;9.30;99.90
26623;DHT22;14254;50.968;5.366;2023-01-04T01:33:53;9.30;99.90
26623;DHT22;14254;50.968;5.366;2023-01-04T01:36:21;9.30;99.90
26623;DHT22;14254;50.968;5.366;2023-01-04T01:38:48;9.40;99.90
26623;DHT22;14254;50.968;5.366;2023-01-04T01:41:23;9.40;99.90
26623;DHT22;14254;50.968;5.366;2023-01-04T01:43:53;9.50;99.90
26623;DHT22;14254;50.968;5.366;2023-01-04T01:48:58;9.60;99.90
26623;DHT22;14254;50.968;5.366;2023-01-04T01:51:26;9.60;99.90
26623;DHT22;14254;50.968;5.366;2023-01-04T01:53:57;9.60;99.90
26623;DHT22;14254;50.968;5.366;2023-01-04T01:56:27;9.70;99.90
26623;DHT22;14254;50.968;5.366;2023-01-04T01:58:55;9.70;99.90
26623;DHT22;14254;50.968;5.366;2023-01-04T02:01:22;9.80;99.90
26623;DHT22;14254;50.968;5.366;2023-01-04T02:03:48;9.90;99.90
26623;DHT22;14254;50.968;5.366;2023-01-04T02:06:21;9.90;99.90
26623;DHT22;14254;50.968;5.366;2023-01-04T02:08:49;10.00;99.90
26623;DHT22;14254;50.968;5.366;2023-01-04T02:11:15;10.00;99.90
26623;DHT22;14254;50.968;5.366;2023-01-04T02:13:42;10.10;99.90
26623;DHT22;14254;50.968;5.366;2023-01-04T02:27:54;10.20;99.90
26623;DHT22;14254;50.968;5.366;2023-01-04T02:38:24;10.40;99.90
26623;DHT22;14254;50.968;5.366;2023-01-04T02:40:54;10.40;99.90
26623;DHT22;14254;50.968;5.366;2023-01-04T02:43:39;10.40;99.90
26623;DHT22;14254;50.968;5.366;2023-01-04T02:46:28;10.30;99.90
26623;DHT22;14254;50.968;5.366;2023-01-04T02:48:59;10.30;99.90
26623;DHT22;14254;50.968;5.366;2023-01-04T02:51:43;10.20;99.90
26623;DHT22;14254;50.968;5.366;2023-01-04T02:54:21;10.10;99.90
26623;DHT22;14254;50.968;5.366;2023-01-04T03:00:09;10.00;99.90
26623;DHT22;14254;50.968;5.366;2023-01-04T03:03:00;10.00;99.90
26623;DHT22;14254;50.968;5.366;2023-01-04T03:08:56;10.00;99.90
26623;DHT22;14254;50.968;5.366;2023-01-04T03:11:24;10.00;99.90
26623;DHT22;14254;50.968;5.366;2023-01-04T03:14:13;10.00;99.90
26623;DHT22;14254;50.968;5.366;2023-01-04T03:16:41;10.00;99.90
26623;DHT22;14254;50.968;5.366;2023-01-04T03:19:10;10.00;99.90
26623;DHT22;14254;50.968;5.366;2023-01-04T03:21:41;10.00;99.90
26623;DHT22;14254;50.968;5.366;2023-01-04T03:24:09;10.00;99.90
26623;DHT22;14254;50.968;5.366;2023-01-04T03:27:03;10.00;99.90
26623;DHT22;14254;50.968;5.366;2023-01-04T03:29:57;10.00;99.90
26623;DHT22;14254;50.968;5.366;2023-01-04T03:32:50;10.00;99.90
26623;DHT22;14254;50.968;5.366;2023-01-04T03:38:31;10.00;99.90
26623;DHT22;14254;50.968;5.366;2023-01-04T03:41:26;10.00;99.90
26623;DHT22;14254;50.968;5.366;2023-01-04T03:44:22;9.90;99.90
26623;DHT22;14254;50.968;5.366;2023-01-04T03:47:19;9.90;99.90
26623;DHT22;14254;50.968;5.366;2023-01-04T03:50:17;10.00;99.90
26623;DHT22;14254;50.968;5.366;2023-01-04T03:52:45;10.00;99.90
26623;DHT22;14254;50.968;5.366;2023-01-04T03:55:12;10.00;99.90
26623;DHT22;14254;50.968;5.366;2023-01-04T03:57:39;10.00;99.90
26623;DHT22;14254;50.968;5.366;2023-01-04T04:00:13;10.00;99.90
26623;DHT22;14254;50.968;5.366;2023-01-04T04:02:39;10.00;99.90
26623;DHT22;14254;50.968;5.366;2023-01-04T04:05:06;10.00;99.90
26623;DHT22;14254;50.968;5.366;2023-01-04T04:07:50;10.00;99.90
26623;DHT22;14254;50.968;5.366;2023-01-04T04:10:35;10.00;99.90
26623;DHT22;14254;50.968;5.366;2023-01-04T04:13:00;10.00;99.90
26623;DHT22;14254;50.968;5.366;2023-01-04T04:15:26;10.00;99.90
26623;DHT22;14254;50.968;5.366;2023-01-04T04:17:52;10.00;99.90
26623;DHT22;14254;50.968;5.366;2023-01-04T04:20:18;10.00;99.90
26623;DHT22;14254;50.968;5.366;2023-01-04T04:22:43;10.10;99.90
26623;DHT22;14254;50.968;5.366;2023-01-04T04:25:09;10.00;99.90
26623;DHT22;14254;50.968;5.366;2023-01-04T04:27:35;10.10;99.90
26623;DHT22;14254;50.968;5.366;2023-01-04T04:30:02;10.10;99.90
26623;DHT22;14254;50.968;5.366;2023-01-04T04:32:28;10.20;99.90
26623;DHT22;14254;50.968;5.366;2023-01-04T04:34:54;10.20;99.90
26623;DHT22;14254;50.968;5.366;2023-01-04T04:37:19;10.20;99.90
26623;DHT22;14254;50.968;5.366;2023-01-04T04:39:45;10.20;99.90
26623;DHT22;14254;50.968;5.366;2023-01-04T04:42:11;10.20;99.90
26623;DHT22;14254;50.968;5.366;2023-01-04T04:44:36;10.30;99.90
26623;DHT22;14254;50.968;5.366;2023-01-04T04:47:02;10.30;99.90
26623;DHT22;14254;50.968;5.366;2023-01-04T04:49:28;10.30;99.90
26623;DHT22;14254;50.968;5.366;2023-01-04T04:51:54;10.40;99.90
26623;DHT22;14254;50.968;5.366;2023-01-04T04:54:20;10.40;99.90
26623;DHT22;14254;50.968;5.366;2023-01-04T04:56:47;10.40;99.90
26623;DHT22;14254;50.968;5.366;2023-01-04T04:59:13;10.40;99.90
26623;DHT22;14254;50.968;5.366;2023-01-04T05:01:39;10.40;99.90
26623;DHT22;14254;50.968;5.366;2023-01-04T05:04:05;10.50;99.90
26623;DHT22;14254;50.968;5.366;2023-01-04T05:06:31;10.50;99.90
26623;DHT22;14254;50.968;5.366;2023-01-04T05:08:57;10.50;99.90
26623;DHT22;14254;50.968;5.366;2023-01-04T05:11:23;10.60;99.90
26623;DHT22;14254;50.968;5.366;2023-01-04T05:14:08;10.60;99.90
26623;DHT22;14254;50.968;5.366;2023-01-04T05:16:34;10.60;99.90
26623;DHT22;14254;50.968;5.366;2023-01-04T05:19:00;10.60;99.90
26623;DHT22;14254;50.968;5.366;2023-01-04T05:21:26;10.60;99.90
26623;DHT22;14254;50.968;5.366;2023-01-04T05:23:51;10.60;99.90
26623;DHT22;14254;50.968;5.366;2023-01-04T05:26:17;10.70;99.90
26623;DHT22;14254;50.968;5.366;2023-01-04T05:28:43;10.70;99.90
26623;DHT22;14254;50.968;5.366;2023-01-04T05:31:08;10.80;99.90
26623;DHT22;14254;50.968;5.366;2023-01-04T05:33:34;10.80;99.90
26623;DHT22;14254;50.968;5.366;2023-01-04T05:36:01;10.80;99.90
26623;DHT22;14254;50.968;5.366;2023-01-04T05:38:28;10.80;99.90
26623;DHT22;14254;50.968;5.366;2023-01-04T05:40:54;10.80;99.90
26623;DHT22;14254;50.968;5.366;2023-01-04T05:43:22;10.80;99.90
26623;DHT22;14254;50.968;5.366;2023-01-04T05:45:50;10.90;99.90
26623;DHT22;14254;50.968;5.366;2023-01-04T05:48:17;10.90;99.90
26623;DHT22;14254;50.968;5.366;2023-01-04T05:50:43;11.00;99.90
26623;DHT22;14254;50.968;5.366;2023-01-04T05:53:11;11.00;99.90
26623;DHT22;14254;50.968;5.366;2023-01-04T05:55:37;11.10;99.90
26623;DHT22;14254;50.968;5.366;2023-01-04T05:58:03;11.20;99.90
26623;DHT22;14254;50.968;5.366;2023-01-04T06:00:28;11.10;99.90
26623;DHT22;14254;50.968;5.366;2023-01-04T06:02:54;11.20;99.90
26623;DHT22;14254;50.968;5.366;2023-01-04T06:05:24;11.20;99.90
26623;DHT22;14254;50.968;5.366;2023-01-04T06:07:50;11.20;99.90
26623;DHT22;14254;50.968;5.366;2023-01-04T06:10:17;11.20;99.90
26623;DHT22;14254;50.968;5.366;2023-01-04T06:12:43;11.10;99.90
26623;DHT22;14254;50.968;5.366;2023-01-04T06:15:10;11.10;99.90
26623;DHT22;14254;50.968;5.366;2023-01-04T06:17:37;11.10;99.90
26623;DHT22;14254;50.968;5.366;2023-01-04T06:20:04;11.00;99.90
26623;DHT22;14254;50.968;5.366;2023-01-04T06:22:30;11.10;99.90
26623;DHT22;14254;50.968;5.366;2023-01-04T06:24:57;11.00;99.90
26623;DHT22;14254;50.968;5.366;2023-01-04T06:27:23;11.00;99.90
26623;DHT22;14254;50.968;5.366;2023-01-04T06:29:49;11.10;99.90
26623;DHT22;14254;50.968;5.366;2023-01-04T06:32:15;11.10;99.90
26623;DHT22;14254;50.968;5.366;2023-01-04T06:34:40;11.20;99.90
26623;DHT22;14254;50.968;5.366;2023-01-04T06:37:06;11.20;99.90
26623;DHT22;14254;50.968;5.366;2023-01-04T06:39:32;11.30;99.90
26623;DHT22;14254;50.968;5.366;2023-01-04T06:41:58;11.40;99.90
26623;DHT22;14254;50.968;5.366;2023-01-04T06:44:23;11.40;99.90
26623;DHT22;14254;50.968;5.366;2023-01-04T06:46:49;11.50;99.90
26623;DHT22;14254;50.968;5.366;2023-01-04T06:49:15;11.60;99.90
26623;DHT22;14254;50.968;5.366;2023-01-04T06:51:40;11.60;99.90
26623;DHT22;14254;50.968;5.366;2023-01-04T06:54:07;11.60;99.90
26623;DHT22;14254;50.968;5.366;2023-01-04T06:56:33;11.60;99.90
26623;DHT22;14254;50.968;5.366;2023-01-04T06:58:59;11.60;99.90
26623;DHT22;14254;50.968;5.366;2023-01-04T07:01:24;11.60;99.90
26623;DHT22;14254;50.968;5.366;2023-01-04T07:03:50;11.70;99.90
26623;DHT22;14254;50.968;5.366;2023-01-04T07:06:16;11.70;99.90
26623;DHT22;14254;50.968;5.366;2023-01-04T07:08:41;11.70;99.90
26623;DHT22;14254;50.968;5.366;2023-01-04T07:11:07;11.70;99.90
26623;DHT22;14254;50.968;5.366;2023-01-04T07:13:33;11.70;99.90
26623;DHT22;14254;50.968;5.366;2023-01-04T07:15:59;11.70;99.90
26623;DHT22;14254;50.968;5.366;2023-01-04T07:18:24;11.70;99.90
26623;DHT22;14254;50.968;5.366;2023-01-04T07:20:50;11.70;99.90
26623;DHT22;14254;50.968;5.366;2023-01-04T07:23:16;11.70;99.90
26623;DHT22;14254;50.968;5.366;2023-01-04T07:25:41;11.80;99.90
26623;DHT22;14254;50.968;5.366;2023-01-04T07:28:07;11.90;99.90
26623;DHT22;14254;50.968;5.366;2023-01-04T07:30:33;11.90;99.90
26623;DHT22;14254;50.968;5.366;2023-01-04T07:32:59;12.00;99.90
26623;DHT22;14254;50.968;5.366;2023-01-04T07:35:25;12.00;99.90
26623;DHT22;14254;50.968;5.366;2023-01-04T07:37:51;12.00;99.90
26623;DHT22;14254;50.968;5.366;2023-01-04T07:40:17;12.10;99.90
26623;DHT22;14254;50.968;5.366;2023-01-04T07:42:42;12.20;99.90
26623;DHT22;14254;50.968;5.366;2023-01-04T07:45:08;12.20;99.90
26623;DHT22;14254;50.968;5.366;2023-01-04T07:47:34;12.20;99.90
26623;DHT22;14254;50.968;5.366;2023-01-04T07:50:00;12.20;99.90
26623;DHT22;14254;50.968;5.366;2023-01-04T07:52:26;12.10;99.90
26623;DHT22;14254;50.968;5.366;2023-01-04T07:54:52;12.10;99.90
26623;DHT22;14254;50.968;5.366;2023-01-04T07:57:17;12.10;99.90
26623;DHT22;14254;50.968;5.366;2023-01-04T07:59:43;12.10;99.90
26623;DHT22;14254;50.968;5.366;2023-01-04T08:02:10;12.00;99.90
26623;DHT22;14254;50.968;5.366;2023-01-04T08:04:36;11.90;99.90
26623;DHT22;14254;50.968;5.366;2023-01-04T08:07:02;11.80;99.90
26623;DHT22;14254;50.968;5.366;2023-01-04T08:09:28;11.70;99.90
26623;DHT22;14254;50.968;5.366;2023-01-04T08:11:53;11.70;99.90
26623;DHT22;14254;50.968;5.366;2023-01-04T08:14:19;11.70;99.90
26623;DHT22;14254;50.968;5.366;2023-01-04T08:16:45;11.80;99.90
26623;DHT22;14254;50.968;5.366;2023-01-04T08:19:13;11.80;99.90
26623;DHT22;14254;50.968;5.366;2023-01-04T08:21:39;11.80;99.90
26623;DHT22;14254;50.968;5.366;2023-01-04T08:24:06;11.90;99.90
26623;DHT22;14254;50.968;5.366;2023-01-04T08:26:32;11.80;99.90
26623;DHT22;14254;50.968;5.366;2023-01-04T08:28:58;11.90;99.90
26623;DHT22;14254;50.968;5.366;2023-01-04T08:31:28;11.90;99.90
26623;DHT22;14254;50.968;5.366;2023-01-04T08:33:54;11.90;99.90
26623;DHT22;14254;50.968;5.366;2023-01-04T08:36:26;12.00;99.90
26623;DHT22;14254;50.968;5.366;2023-01-04T08:38:54;12.10;99.90
26623;DHT22;14254;50.968;5.366;2023-01-04T08:41:20;12.20;99.90
26623;DHT22;14254;50.968;5.366;2023-01-04T08:43:46;12.30;99.90
26623;DHT22;14254;50.968;5.366;2023-01-04T08:46:12;12.40;99.90
26623;DHT22;14254;50.968;5.366;2023-01-04T08:48:39;12.50;99.90
26623;DHT22;14254;50.968;5.366;2023-01-04T08:51:13;12.50;99.90
26623;DHT22;14254;50.968;5.366;2023-01-04T08:53:40;12.60;99.90
26623;DHT22;14254;50.968;5.366;2023-01-04T08:56:06;12.60;99.90
26623;DHT22;14254;50.968;5.366;2023-01-04T08:58:34;12.60;99.90
26623;DHT22;14254;50.968;5.366;2023-01-04T09:01:05;12.70;99.90
26623;DHT22;14254;50.968;5.366;2023-01-04T09:03:32;12.60;99.90
26623;DHT22;14254;50.968;5.366;2023-01-04T09:06:12;12.60;99.90
26623;DHT22;14254;50.968;5.366;2023-01-04T09:08:39;12.60;99.90
26623;DHT22;14254;50.968;5.366;2023-01-04T09:11:11;12.60;99.90
26623;DHT22;14254;50.968;5.366;2023-01-04T09:13:37;12.60;99.90
26623;DHT22;14254;50.968;5.366;2023-01-04T09:16:05;12.60;99.90
26623;DHT22;14254;50.968;5.366;2023-01-04T09:18:32;12.70;99.90
26623;DHT22;14254;50.968;5.366;2023-01-04T09:20:58;12.70;99.90
26623;DHT22;14254;50.968;5.366;2023-01-04T09:23:27;12.60;99.90
26623;DHT22;14254;50.968;5.366;2023-01-04T09:25:53;12.50;99.90
26623;DHT22;14254;50.968;5.366;2023-01-04T09:28:19;12.30;99.90
26623;DHT22;14254;50.968;5.366;2023-01-04T09:30:45;12.20;99.90
26623;DHT22;14254;50.968;5.366;2023-01-04T09:33:11;12.20;99.90
26623;DHT22;14254;50.968;5.366;2023-01-04T09:35:36;12.20;99.90
26623;DHT22;14254;50.968;5.366;2023-01-04T09:38:02;12.20;99.90
26623;DHT22;14254;50.968;5.366;2023-01-04T09:40:38;12.10;99.90
26623;DHT22;14254;50.968;5.366;2023-01-04T09:43:15;12.20;99.90
26623;DHT22;14254;50.968;5.366;2023-01-04T09:45:43;12.20;99.90
26623;DHT22;14254;50.968;5.366;2023-01-04T09:48:15;12.30;99.90
26623;DHT22;14254;50.968;5.366;2023-01-04T09:51:04;12.30;99.90
26623;DHT22;14254;50.968;5.366;2023-01-04T09:56:27;12.30;99.90
26623;DHT22;14254;50.968;5.366;2023-01-04T09:58:54;12.30;99.90
26623;DHT22;14254;50.968;5.366;2023-01-04T10:01:24;12.40;99.90
26623;DHT22;14254;50.968;5.366;2023-01-04T10:04:33;12.40;99.90
26623;DHT22;14254;50.968;5.366;2023-01-04T10:06:52;12.40;99.90
26623;DHT22;14254;50.968;5.366;2023-01-04T10:09:19;12.30;99.90
26623;DHT22;14254;50.968;5.366;2023-01-04T10:26:14;12.40;99.90
26623;DHT22;14254;50.968;5.366;2023-01-04T10:34:41;12.40;99.90
26623;DHT22;14254;50.968;5.366;2023-01-04T10:37:17;12.40;99.90
26623;DHT22;14254;50.968;5.366;2023-01-04T10:39:45;12.40;99.90
26623;DHT22;14254;50.968;5.366;2023-01-04T10:42:36;12.40;99.90
26623;DHT22;14254;50.968;5.366;2023-01-04T10:45:21;12.40;99.90
26623;DHT22;14254;50.968;5.366;2023-01-04T10:48:15;12.40;99.90
26623;DHT22;14254;50.968;5.366;2023-01-04T10:51:04;12.50;99.90
26623;DHT22;14254;50.968;5.366;2023-01-04T10:54:07;12.50;99.90
26623;DHT22;14254;50.968;5.366;2023-01-04T10:59:21;12.40;99.90
26623;DHT22;14254;50.968;5.366;2023-01-04T11:01:58;12.50;99.90
26623;DHT22;14254;50.968;5.366;2023-01-04T11:04:37;12.40;99.90
26623;DHT22;14254;50.968;5.366;2023-01-04T11:07:12;12.40;99.90
26623;DHT22;14254;50.968;5.366;2023-01-04T11:09:45;12.40;99.90
26623;DHT22;14254;50.968;5.366;2023-01-04T11:12:16;12.30;99.90
26623;DHT22;14254;50.968;5.366;2023-01-04T11:14:43;12.30;99.90
26623;DHT22;14254;50.968;5.366;2023-01-04T11:17:10;12.40;99.90
26623;DHT22;14254;50.968;5.366;2023-01-04T11:19:37;12.40;99.90
26623;DHT22;14254;50.968;5.366;2023-01-04T11:22:10;12.40;99.90
26623;DHT22;14254;50.968;5.366;2023-01-04T11:24:39;12.40;99.90
26623;DHT22;14254;50.968;5.366;2023-01-04T11:27:13;12.40;99.90
26623;DHT22;14254;50.968;5.366;2023-01-04T11:32:43;12.50;99.90
26623;DHT22;14254;50.968;5.366;2023-01-04T11:35:10;12.50;99.90
26623;DHT22;14254;50.968;5.366;2023-01-04T11:37:38;12.40;99.90
26623;DHT22;14254;50.968;5.366;2023-01-04T11:42:42;12.30;99.90
26623;DHT22;14254;50.968;5.366;2023-01-04T11:45:23;12.40;99.90
26623;DHT22;14254;50.968;5.366;2023-01-04T11:47:54;12.40;99.90
26623;DHT22;14254;50.968;5.366;2023-01-04T11:50:47;12.40;99.90
26623;DHT22;14254;50.968;5.366;2023-01-04T11:53:23;12.40;99.90
26623;DHT22;14254;50.968;5.366;2023-01-04T11:55:50;12.40;99.90
26623;DHT22;14254;50.968;5.366;2023-01-04T11:58:17;12.40;99.90
26623;DHT22;14254;50.968;5.366;2023-01-04T12:00:53;12.40;99.90
26623;DHT22;14254;50.968;5.366;2023-01-04T12:03:25;12.30;99.90
26623;DHT22;14254;50.968;5.366;2023-01-04T12:05:51;12.40;99.90
26623;DHT22;14254;50.968;5.366;2023-01-04T12:08:31;12.50;99.90
26623;DHT22;14254;50.968;5.366;2023-01-04T12:10:59;12.50;99.90
26623;DHT22;14254;50.968;5.366;2023-01-04T12:13:26;12.50;99.90
26623;DHT22;14254;50.968;5.366;2023-01-04T12:18:40;12.40;99.90
26623;DHT22;14254;50.968;5.366;2023-01-04T12:21:19;12.40;99.90
26623;DHT22;14254;50.968;5.366;2023-01-04T12:23:46;12.40;99.90
26623;DHT22;14254;50.968;5.366;2023-01-04T12:26:13;12.50;99.90
26623;DHT22;14254;50.968;5.366;2023-01-04T12:28:47;12.50;99.90
26623;DHT22;14254;50.968;5.366;2023-01-04T12:36:57;12.70;99.90
26623;DHT22;14254;50.968;5.366;2023-01-04T12:50:22;12.60;99.90
26623;DHT22;14254;50.968;5.366;2023-01-04T12:52:57;12.60;99.90
26623;DHT22;14254;50.968;5.366;2023-01-04T12:57:59;12.60;99.90
26623;DHT22;14254;50.968;5.366;2023-01-04T13:06:05;12.60;99.90
26623;DHT22;14254;50.968;5.366;2023-01-04T13:08:39;12.70;99.90
26623;DHT22;14254;50.968;5.366;2023-01-04T13:11:17;12.70;99.90
26623;DHT22;14254;50.968;5.366;2023-01-04T13:13:56;12.70;99.90
26623;DHT22;14254;50.968;5.366;2023-01-04T13:19:21;12.70;99.90
26623;DHT22;14254;50.968;5.366;2023-01-04T13:21:50;12.70;99.90
26623;DHT22;14254;50.968;5.366;2023-01-04T13:24:28;12.80;99.90
26623;DHT22;14254;50.968;5.366;2023-01-04T13:27:04;12.70;99.90
26623;DHT22;14254;50.968;5.366;2023-01-04T13:29:34;12.70;99.90
26623;DHT22;14254;50.968;5.366;2023-01-04T13:34:35;12.70;99.90
26623;DHT22;14254;50.968;5.366;2023-01-04T13:39:47;12.80;99.90
26623;DHT22;14254;50.968;5.366;2023-01-04T13:47:40;12.80;99.90
26623;DHT22;14254;50.968;5.366;2023-01-04T13:52:45;12.90;99.90
26623;DHT22;14254;50.968;5.366;2023-01-04T13:55:20;12.90;99.90
26623;DHT22;14254;50.968;5.366;2023-01-04T13:57:58;12.90;99.90
26623;DHT22;14254;50.968;5.366;2023-01-04T14:00:29;12.90;99.90
26623;DHT22;14254;50.968;5.366;2023-01-04T14:03:13;12.90;99.90
26623;DHT22;14254;50.968;5.366;2023-01-04T14:05:48;12.90;99.90
26623;DHT22;14254;50.968;5.366;2023-01-04T14:08:32;13.00;99.90
26623;DHT22;14254;50.968;5.366;2023-01-04T14:10:58;13.00;99.90
26623;DHT22;14254;50.968;5.366;2023-01-04T14:13:24;13.00;99.90
26623;DHT22;14254;50.968;5.366;2023-01-04T14:16:24;13.00;99.90
26623;DHT22;14254;50.968;5.366;2023-01-04T14:18:50;13.10;99.90
26623;DHT22;14254;50.968;5.366;2023-01-04T14:21:16;13.10;99.90
26623;DHT22;14254;50.968;5.366;2023-01-04T14:23:43;13.10;99.90
26623;DHT22;14254;50.968;5.366;2023-01-04T14:26:28;13.10;99.90
26623;DHT22;14254;50.968;5.366;2023-01-04T14:28:55;13.20;99.90
26623;DHT22;14254;50.968;5.366;2023-01-04T14:31:24;13.30;99.90
26623;DHT22;14254;50.968;5.366;2023-01-04T14:33:52;13.40;99.90
26623;DHT22;14254;50.968;5.366;2023-01-04T14:36:29;13.50;99.90
26623;DHT22;14254;50.968;5.366;2023-01-04T14:46:26;13.50;99.90
26623;DHT22;14254;50.968;5.366;2023-01-04T14:48:53;13.40;99.90
26623;DHT22;14254;50.968;5.366;2023-01-04T14:51:21;13.40;99.90
26623;DHT22;14254;50.968;5.366;2023-01-04T14:53:48;13.40;99.90
26623;DHT22;14254;50.968;5.366;2023-01-04T14:56:17;13.30;99.90
26623;DHT22;14254;50.968;5.366;2023-01-04T14:58:44;13.40;99.90
26623;DHT22;14254;50.968;5.366;2023-01-04T15:01:11;13.30;99.90
26623;DHT22;14254;50.968;5.366;2023-01-04T15:03:37;13.30;99.90
26623;DHT22;14254;50.968;5.366;2023-01-04T15:06:03;13.30;99.90
26623;DHT22;14254;50.968;5.366;2023-01-04T15:08:30;13.30;99.90
26623;DHT22;14254;50.968;5.366;2023-01-04T15:10:56;13.20;99.90
26623;DHT22;14254;50.968;5.366;2023-01-04T15:13:22;13.20;99.90
26623;DHT22;14254;50.968;5.366;2023-01-04T15:15:48;13.20;99.90
26623;DHT22;14254;50.968;5.366;2023-01-04T15:18:16;13.20;99.90
26623;DHT22;14254;50.968;5.366;2023-01-04T15:20:42;13.10;99.90
26623;DHT22;14254;50.968;5.366;2023-01-04T15:23:08;13.10;99.90
26623;DHT22;14254;50.968;5.366;2023-01-04T15:25:34;13.10;99.90
26623;DHT22;14254;50.968;5.366;2023-01-04T15:28:00;13.10;99.90
26623;DHT22;14254;50.968;5.366;2023-01-04T15:30:25;13.10;99.90
26623;DHT22;14254;50.968;5.366;2023-01-04T15:32:51;13.10;99.90
26623;DHT22;14254;50.968;5.366;2023-01-04T15:35:17;13.10;99.90
26623;DHT22;14254;50.968;5.366;2023-01-04T15:37:43;13.00;99.90
26623;DHT22;14254;50.968;5.366;2023-01-04T15:40:10;13.10;99.90
26623;DHT22;14254;50.968;5.366;2023-01-04T15:42:36;13.10;99.90
26623;DHT22;14254;50.968;5.366;2023-01-04T15:45:20;13.10;99.90
26623;DHT22;14254;50.968;5.366;2023-01-04T15:47:48;13.10;99.90
26623;DHT22;14254;50.968;5.366;2023-01-04T15:50:14;13.10;99.90
26623;DHT22;14254;50.968;5.366;2023-01-04T15:52:40;13.00;99.90
26623;DHT22;14254;50.968;5.366;2023-01-04T15:55:06;13.10;99.90
26623;DHT22;14254;50.968;5.366;2023-01-04T15:57:32;13.10;99.90
26623;DHT22;14254;50.968;5.366;2023-01-04T15:59:58;13.10;99.90
26623;DHT22;14254;50.968;5.366;2023-01-04T16:02:23;13.10;99.90
26623;DHT22;14254;50.968;5.366;2023-01-04T16:04:49;13.10;99.90
26623;DHT22;14254;50.968;5.366;2023-01-04T16:07:15;13.10;99.90
26623;DHT22;14254;50.968;5.366;2023-01-04T16:09:41;13.10;99.90
26623;DHT22;14254;50.968;5.366;2023-01-04T16:12:07;13.10;99.90
26623;DHT22;14254;50.968;5.366;2023-01-04T16:14:51;13.10;99.90
26623;DHT22;14254;50.968;5.366;2023-01-04T16:17:18;13.20;99.90
26623;DHT22;14254;50.968;5.366;2023-01-04T16:19:44;13.20;99.90
26623;DHT22;14254;50.968;5.366;2023-01-04T16:22:09;13.20;99.90
26623;DHT22;14254;50.968;5.366;2023-01-04T16:24:35;13.20;99.90
26623;DHT22;14254;50.968;5.366;2023-01-04T16:27:01;13.20;99.90
26623;DHT22;14254;50.968;5.366;2023-01-04T16:29:26;13.20;99.90
26623;DHT22;14254;50.968;5.366;2023-01-04T16:31:52;13.30;99.90
26623;DHT22;14254;50.968;5.366;2023-01-04T16:34:18;13.30;99.90
26623;DHT22;14254;50.968;5.366;2023-01-04T16:36:43;13.30;99.90
26623;DHT22;14254;50.968;5.366;2023-01-04T16:39:09;13.30;99.90
26623;DHT22;14254;50.968;5.366;2023-01-04T16:41:35;13.20;99.90
26623;DHT22;14254;50.968;5.366;2023-01-04T16:44:03;13.30;99.90
26623;DHT22;14254;50.968;5.366;2023-01-04T16:46:34;13.30;99.90
26623;DHT22;14254;50.968;5.366;2023-01-04T16:49:08;13.30;99.90
26623;DHT22;14254;50.968;5.366;2023-01-04T16:51:37;13.40;99.90
26623;DHT22;14254;50.968;5.366;2023-01-04T16:54:05;13.40;99.90
26623;DHT22;14254;50.968;5.366;2023-01-04T16:56:32;13.50;99.90
26623;DHT22;14254;50.968;5.366;2023-01-04T16:58:58;13.40;99.90
26623;DHT22;14254;50.968;5.366;2023-01-04T17:01:31;13.40;99.90
26623;DHT22;14254;50.968;5.366;2023-01-04T17:03:59;13.40;99.90
26623;DHT22;14254;50.968;5.366;2023-01-04T17:06:30;13.30;99.90
26623;DHT22;14254;50.968;5.366;2023-01-04T17:08:57;13.30;99.90
26623;DHT22;14254;50.968;5.366;2023-01-04T17:11:27;13.30;99.90
26623;DHT22;14254;50.968;5.366;2023-01-04T17:13:54;13.30;99.90
26623;DHT22;14254;50.968;5.366;2023-01-04T17:16:20;13.40;99.90
26623;DHT22;14254;50.968;5.366;2023-01-04T17:18:47;13.40;99.90
26623;DHT22;14254;50.968;5.366;2023-01-04T17:21:14;13.40;99.90
26623;DHT22;14254;50.968;5.366;2023-01-04T17:23:43;13.40;99.90
26623;DHT22;14254;50.968;5.366;2023-01-04T17:26:20;13.30;99.90
26623;DHT22;14254;50.968;5.366;2023-01-04T17:28:47;13.30;99.90
26623;DHT22;14254;50.968;5.366;2023-01-04T17:31:18;13.30;99.90
26623;DHT22;14254;50.968;5.366;2023-01-04T17:33:45;13.30;99.90
26623;DHT22;14254;50.968;5.366;2023-01-04T17:36:12;13.30;99.90
26623;DHT22;14254;50.968;5.366;2023-01-04T17:38:39;13.30;99.90
26623;DHT22;14254;50.968;5.366;2023-01-04T17:41:19;13.30;99.90